createdAt,value
2023-05-21T00:01:23.659Z,89.18
2023-05-21T00:06:26.263Z,89.56
2023-05-21T00:11:28.435Z,90.25
2023-05-21T00:16:31.652Z,90.41
2023-05-21T00:21:33.995Z,90.70
2023-05-21T00:26:36.180Z,90.70
2023-05-21T00:31:39.344Z,91.63
2023-05-21T00:36:41.523Z,92.58
2023-05-21T00:41:43.691Z,93.13
2023-05-21T00:46:47.030Z,93.44
2023-05-21T00:51:48.865Z,93.65
2023-05-21T00:56:51.591Z,94.10
2023-05-21T01:01:56.540Z,95.45
2023-05-21T01:06:58.965Z,96.00
2023-05-21T01:12:01.734Z,96.30
2023-05-21T01:17:06.623Z,97.44
2023-05-21T01:22:08.907Z,97.27
2023-05-21T01:27:12.569Z,98.05
2023-05-21T01:32:24.456Z,99.43
2023-05-21T01:37:31.380Z,99.75
2023-05-21T01:42:39.257Z,99.95
2023-05-21T01:47:42.270Z,99.48
2023-05-21T01:52:50.322Z,99.56
2023-05-21T01:57:55.507Z,100.00
2023-05-21T02:02:57.652Z,100.00
2023-05-21T02:08:01.762Z,100.00
2023-05-21T02:13:05.278Z,100.00
2023-05-21T02:18:07.500Z,100.00
2023-05-21T02:23:09.676Z,100.00
2023-05-21T02:28:12.810Z,100.00
2023-05-21T02:33:16.413Z,100.00
2023-05-21T02:38:18.553Z,100.00
2023-05-21T02:43:22.094Z,100.00
2023-05-21T02:48:23.821Z,100.00
2023-05-21T02:53:26.273Z,100.00
2023-05-21T02:58:30.251Z,100.00
2023-05-21T03:03:32.452Z,100.00
2023-05-21T03:08:35.055Z,100.00
2023-05-21T03:13:38.416Z,100.00
2023-05-21T03:18:40.678Z,100.00
2023-05-21T03:23:42.820Z,100.00
2023-05-21T03:28:46.292Z,100.00
2023-05-21T03:33:48.555Z,100.00
2023-05-21T03:38:50.705Z,100.00
2023-05-21T03:43:54.251Z,100.00
2023-05-21T03:48:56.470Z,100.00
2023-05-21T03:53:59.035Z,100.00
2023-05-21T03:59:02.224Z,100.00
2023-05-21T04:04:04.459Z,100.00
2023-05-21T04:09:06.876Z,100.00
2023-05-21T04:14:10.167Z,99.35
2023-05-21T04:19:11.991Z,98.19
2023-05-21T04:24:14.341Z,96.01
2023-05-21T04:29:18.038Z,94.44
2023-05-21T04:34:19.967Z,88.05
2023-05-21T04:39:22.088Z,83.28
2023-05-21T04:44:25.239Z,81.57
2023-05-21T04:49:27.462Z,81.70
2023-05-21T04:54:29.590Z,80.75
2023-05-21T04:59:32.721Z,79.53
2023-05-21T05:04:34.878Z,79.20
2023-05-21T05:09:37.537Z,79.56
2023-05-21T05:14:41.022Z,75.74
2023-05-21T05:19:43.229Z,75.50
2023-05-21T05:24:45.351Z,77.39
2023-05-21T05:29:48.489Z,78.33
2023-05-21T05:34:50.229Z,80.32
2023-05-21T05:39:52.419Z,81.45
2023-05-21T05:44:56.183Z,81.18
2023-05-21T05:49:58.322Z,82.53
2023-05-21T05:55:00.453Z,82.85
2023-05-21T06:00:04.615Z,82.21
2023-05-21T06:05:07.687Z,82.95
2023-05-21T06:10:10.875Z,81.35
2023-05-21T06:15:14.501Z,79.77
2023-05-21T06:20:16.744Z,75.24
2023-05-21T06:25:18.663Z,75.09
2023-05-21T06:30:21.865Z,72.26
2023-05-21T06:35:23.913Z,69.28
2023-05-21T06:40:26.173Z,66.98
2023-05-21T06:45:29.776Z,66.64
2023-05-21T06:50:31.597Z,61.95
2023-05-21T06:55:34.099Z,59.41
2023-05-21T07:00:37.572Z,57.32
2023-05-21T07:05:40.120Z,57.49
2023-05-21T07:10:42.641Z,55.58
2023-05-21T07:15:45.831Z,53.91
2023-05-21T07:20:48.473Z,52.27
2023-05-21T07:25:50.427Z,51.90
2023-05-21T07:30:53.549Z,52.10
2023-05-21T07:35:55.663Z,54.18
2023-05-21T07:40:57.407Z,52.06
2023-05-21T07:46:01.051Z,51.40
2023-05-21T07:51:03.721Z,49.81
2023-05-21T07:56:06.604Z,50.53
2023-05-21T08:01:10.247Z,48.57
2023-05-21T08:06:12.298Z,48.03
2023-05-21T08:11:15.732Z,48.44
2023-05-21T08:16:19.369Z,48.12
2023-05-21T08:21:21.242Z,49.02
2023-05-21T08:26:23.005Z,43.91
2023-05-21T08:31:26.188Z,48.06
2023-05-21T08:36:28.653Z,50.20
2023-05-21T08:41:34.159Z,49.88
2023-05-21T08:46:41.010Z,48.12
2023-05-21T08:51:44.382Z,46.93
2023-05-21T08:56:47.618Z,45.44
2023-05-21T09:01:52.096Z,43.62
2023-05-21T09:06:54.757Z,43.46
2023-05-21T09:11:56.718Z,45.55
2023-05-21T09:17:00.007Z,44.12
2023-05-21T09:22:03.356Z,44.03
2023-05-21T09:27:06.902Z,40.10
2023-05-21T09:32:10.232Z,40.74
2023-05-21T09:37:20.162Z,38.90
2023-05-21T09:42:30.534Z,38.60
2023-05-21T09:47:34.775Z,37.94
2023-05-21T09:52:36.907Z,39.49
2023-05-21T09:57:42.676Z,39.32
2023-05-21T10:02:48.466Z,37.33
2023-05-21T10:07:52.097Z,36.61
2023-05-21T10:12:58.906Z,36.99
2023-05-21T10:18:03.914Z,36.60
2023-05-21T10:23:06.109Z,35.70
2023-05-21T10:33:34.907Z,40.54
2023-05-21T10:38:38.662Z,40.24
2023-05-21T10:44:02.914Z,42.35
2023-05-21T10:49:24.092Z,41.09
2023-05-21T10:55:07.651Z,38.96
2023-05-21T11:00:11.900Z,37.68
2023-05-21T11:05:15.096Z,38.82
2023-05-21T11:10:37.860Z,39.57
2023-05-21T11:16:08.388Z,39.84
2023-05-21T11:21:12.465Z,37.38
2023-05-21T11:26:15.562Z,38.00
2023-05-21T11:31:24.463Z,36.85
2023-05-21T11:36:27.590Z,38.24
2023-05-21T11:41:29.791Z,36.42
2023-05-21T11:46:32.058Z,37.90
2023-05-21T11:51:36.161Z,37.32
2023-05-21T11:56:38.929Z,35.93
2023-05-21T12:01:42.471Z,37.24
2023-05-21T12:06:45.680Z,36.81
2023-05-21T12:11:47.510Z,37.02
2023-05-21T12:16:50.533Z,36.83
2023-05-21T12:21:53.921Z,36.10
2023-05-21T12:26:56.351Z,36.15
2023-05-21T12:31:59.972Z,35.13
2023-05-21T12:37:04.662Z,37.12
2023-05-21T12:42:07.253Z,36.43
2023-05-21T12:47:10.992Z,35.90
2023-05-21T12:52:18.712Z,36.95
2023-05-21T12:57:22.797Z,35.68
2023-05-21T13:02:26.358Z,36.66
2023-05-21T13:07:31.371Z,37.54
2023-05-21T13:12:34.771Z,38.16
2023-05-21T13:17:37.004Z,37.99
2023-05-21T13:22:41.836Z,37.10
2023-05-21T13:27:44.641Z,37.95
2023-05-21T13:32:47.890Z,36.04
2023-05-21T13:37:51.664Z,35.75
2023-05-21T13:42:53.495Z,36.21
2023-05-21T13:47:55.707Z,36.12
2023-05-21T13:52:59.566Z,35.82
2023-05-21T13:58:01.357Z,35.27
2023-05-21T14:03:04.086Z,35.43
2023-05-21T14:08:07.978Z,36.82
2023-05-21T14:13:19.005Z,36.99
2023-05-21T14:18:21.582Z,36.65
2023-05-21T14:23:25.425Z,36.50
2023-05-21T14:28:27.671Z,37.24
2023-05-21T14:33:31.558Z,36.77
2023-05-21T14:38:35.024Z,35.64
2023-05-21T14:43:37.218Z,35.85
2023-05-21T14:48:39.212Z,36.43
2023-05-21T14:53:42.957Z,35.72
2023-05-21T14:58:45.111Z,36.94
2023-05-21T15:03:47.488Z,36.53
2023-05-21T15:08:50.955Z,37.70
2023-05-21T15:13:52.786Z,37.69
2023-05-21T15:18:55.171Z,37.34
2023-05-21T15:23:58.657Z,36.76
2023-05-21T15:29:00.757Z,37.22
2023-05-21T15:34:02.863Z,37.67
2023-05-21T15:39:06.437Z,36.45
2023-05-21T15:44:08.302Z,36.49
2023-05-21T15:49:10.655Z,37.17
2023-05-21T15:54:14.377Z,36.14
2023-05-21T15:59:16.716Z,37.07
2023-05-21T16:04:18.821Z,36.92
2023-05-21T16:09:22.512Z,36.97
2023-05-21T16:14:24.406Z,37.00
2023-05-21T16:19:26.497Z,36.70
2023-05-21T16:24:29.683Z,37.62
2023-05-21T16:29:31.653Z,37.44
2023-05-21T16:34:33.960Z,37.32
2023-05-21T16:39:37.121Z,37.85
2023-05-21T16:44:39.170Z,38.32
2023-05-21T16:49:41.330Z,37.53
2023-05-21T16:54:45.788Z,37.25
2023-05-21T16:59:48.049Z,37.50
2023-05-21T17:04:50.320Z,39.00
2023-05-21T17:09:53.745Z,39.20
2023-05-21T17:14:56.064Z,39.40
2023-05-21T17:19:58.426Z,39.94
2023-05-21T17:25:01.975Z,40.30
2023-05-21T17:30:04.912Z,40.19
2023-05-21T17:35:08.583Z,40.70
2023-05-21T17:40:12.774Z,40.44
2023-05-21T17:45:14.559Z,41.02
2023-05-21T17:50:16.965Z,40.91
2023-05-21T17:55:20.406Z,41.31
2023-05-21T18:00:22.366Z,42.01
2023-05-21T18:05:24.555Z,42.11
2023-05-21T18:10:28.129Z,42.67
2023-05-21T18:15:30.132Z,43.45
2023-05-21T18:20:32.541Z,44.34
2023-05-21T18:25:36.001Z,44.84
2023-05-21T18:30:38.552Z,44.93
2023-05-21T18:35:41.271Z,45.26
2023-05-21T18:40:44.947Z,45.55
2023-05-21T18:45:47.551Z,45.68
2023-05-21T18:50:49.372Z,46.09
2023-05-21T18:55:52.971Z,46.11
2023-05-21T19:00:55.190Z,46.44
2023-05-21T19:05:57.431Z,46.74
2023-05-21T19:11:00.901Z,47.15
2023-05-21T19:16:03.152Z,47.18
2023-05-21T19:21:05.297Z,47.26
2023-05-21T19:26:08.844Z,47.56
2023-05-21T19:31:10.639Z,47.57
2023-05-21T19:36:12.485Z,47.96
2023-05-21T19:41:15.821Z,47.22
2023-05-21T19:46:20.352Z,47.04
2023-05-21T19:51:22.727Z,47.11
2023-05-21T19:56:26.339Z,47.08
2023-05-21T20:01:28.784Z,46.75
2023-05-21T20:06:31.282Z,46.74
2023-05-21T20:11:34.602Z,47.38
2023-05-21T20:16:36.489Z,47.86
2023-05-21T20:21:38.572Z,48.15
2023-05-21T20:26:42.306Z,47.77
2023-05-21T20:31:44.832Z,47.66
2023-05-21T20:36:46.588Z,47.54
2023-05-21T20:41:50.287Z,47.63
2023-05-21T20:46:52.977Z,47.26
2023-05-21T20:51:55.286Z,47.53
2023-05-21T20:56:58.787Z,47.52
2023-05-21T21:02:00.977Z,47.66
2023-05-21T21:07:03.376Z,47.64
2023-05-21T21:12:24.109Z,47.72
2023-05-21T21:17:28.090Z,47.58
2023-05-21T21:22:31.037Z,48.34
2023-05-21T21:27:34.573Z,48.06
2023-05-21T21:32:36.549Z,48.83
2023-05-21T21:37:38.434Z,48.45
2023-05-21T21:42:42.531Z,48.72
2023-05-21T21:47:44.520Z,48.66
2023-05-21T21:52:47.375Z,49.35
2023-05-21T21:57:51.083Z,49.94
2023-05-21T22:02:53.470Z,49.70
2023-05-21T22:07:55.682Z,50.66
2023-05-21T22:12:59.195Z,50.31
2023-05-21T22:18:02.406Z,50.97
2023-05-21T22:23:04.912Z,51.62
2023-05-21T22:28:08.115Z,51.63
2023-05-21T22:33:10.318Z,51.33
2023-05-21T22:38:12.095Z,52.37
2023-05-21T22:43:15.604Z,51.84
2023-05-21T22:48:17.712Z,51.85
2023-05-21T22:53:19.848Z,52.36
2023-05-21T22:58:23.304Z,52.43
2023-05-21T23:03:25.571Z,53.23
2023-05-21T23:08:27.730Z,53.46
2023-05-21T23:13:31.377Z,54.13
2023-05-21T23:18:33.478Z,53.91
2023-05-21T23:23:35.501Z,53.89
2023-05-21T23:28:39.026Z,53.84
2023-05-21T23:33:41.214Z,54.37
2023-05-21T23:38:43.337Z,54.24
2023-05-21T23:43:46.713Z,54.88
2023-05-21T23:48:48.968Z,54.70
2023-05-21T23:53:50.666Z,55.18
2023-05-21T23:58:54.235Z,55.61
